Time;durP1;ratioP1;P1;durP2;ratioP2;P2;SDS_P1;SDS_P2;PMS_P1;PMS_P2;Temp;Humidity;BMP_temperature;BMP_pressure;BME280_temperature;BME280_humidity;BME280_pressure;Samples;Min_cycle;Max_cycle;Signal;HPM_P1;HPM_P2
2022/05/04 00:01:33;;;;;;;18.80;3.90;;;9.20;96.90;;;;;;4918265;29;20141;-75
2022/05/04 00:03:59;;;;;;;8.88;2.38;;;9.20;96.90;;;;;;4920512;29;20049;-73
2022/05/04 00:06:26;;;;;;;15.95;2.50;;;9.40;96.90;;;;;;4920763;29;20021;-75
2022/05/04 00:08:52;;;;;;;12.80;3.42;;;9.30;97.10;;;;;;4920414;29;20052;-74
2022/05/04 00:11:18;;;;;;;13.52;2.47;;;9.40;97.40;;;;;;4920427;29;20028;-75
2022/05/04 00:13:43;;;;;;;9.77;2.25;;;9.30;97.70;;;;;;4921019;29;20536;-76
2022/05/04 00:16:09;;;;;;;11.07;2.88;;;9.30;98.20;;;;;;4903403;29;20044;-75
2022/05/04 00:18:44;;;;;;;14.65;2.70;;;9.40;98.20;;;;;;4903034;29;20048;-76
2022/05/04 00:21:10;;;;;;;15.73;3.05;;;9.40;98.30;;;;;;4919858;29;20048;-74
2022/05/04 00:23:35;;;;;;;13.00;3.20;;;9.30;97.90;;;;;;4903233;29;20059;-75
2022/05/04 00:26:01;;;;;;;15.48;2.70;;;9.30;97.80;;;;;;4903178;29;20049;-74
2022/05/04 00:28:27;;;;;;;12.63;2.83;;;9.30;97.70;;;;;;4919914;29;20076;-75
2022/05/04 00:30:53;;;;;;;13.32;2.97;;;9.50;97.70;;;;;;4916266;29;20048;-74
2022/05/04 00:33:19;;;;;;;8.57;2.38;;;9.40;97.70;;;;;;4902422;29;20124;-74
2022/05/04 00:35:44;;;;;;;9.27;2.13;;;9.30;97.80;;;;;;4903593;29;20043;-75
2022/05/04 00:38:10;;;;;;;14.30;3.00;;;9.30;98.20;;;;;;4919784;29;20032;-74
2022/05/04 00:40:36;;;;;;;12.25;3.65;;;9.30;98.20;;;;;;4918086;29;20049;-76
2022/05/04 00:43:02;;;;;;;14.13;3.20;;;9.20;98.30;;;;;;4919528;29;20108;-75
2022/05/04 00:45:28;;;;;;;13.18;2.53;;;9.30;98.10;;;;;;4915088;29;20037;-75
2022/05/04 00:47:54;;;;;;;10.15;3.50;;;;;;;;;;4901516;29;20061;-75
2022/05/04 00:50:20;;;;;;;16.73;2.78;;;9.20;97.70;;;;;;4898233;29;20048;-75
2022/05/04 00:52:48;;;;;;;12.25;2.95;;;9.20;97.90;;;;;;4895652;29;20053;-75
2022/05/04 00:55:18;;;;;;;12.07;2.42;;;9.20;97.90;;;;;;4919785;29;20422;-74
2022/05/04 01:00:29;;;;;;;14.45;3.08;;;9.20;97.70;;;;;;4902348;29;20048;-74
2022/05/04 01:03:10;;;;;;;13.82;2.75;;;9.20;97.80;;;;;;4902111;29;20301;-75
2022/05/04 01:05:36;;;;;;;13.02;2.55;;;9.20;97.90;;;;;;4917392;29;20044;-75
2022/05/04 01:08:02;;;;;;;13.65;3.15;;;9.20;97.80;;;;;;4918321;29;20464;-75
2022/05/04 01:10:27;;;;;;;14.80;3.00;;;9.20;97.90;;;;;;4902855;29;20100;-76
2022/05/04 01:12:54;;;;;;;11.77;2.83;;;9.20;97.60;;;;;;4916252;29;20132;-75
2022/05/04 01:15:23;;;;;;;11.80;2.47;;;9.20;98.00;;;;;;4917432;29;20048;-76
2022/05/04 01:17:49;;;;;;;17.38;3.08;;;9.20;98.10;;;;;;4901421;29;20080;-75
2022/05/04 01:20:16;;;;;;;18.25;2.80;;;9.10;98.10;;;;;;4918579;29;20064;-75
2022/05/04 01:22:43;;;;;;;17.45;3.45;;;;;;;;;;4919021;29;20024;-76
2022/05/04 01:25:10;;;;;;;14.45;3.10;;;9.10;98.40;;;;;;4918590;29;20059;-74
2022/05/04 01:27:36;;;;;;;17.20;4.05;;;9.10;99.20;;;;;;4918659;29;20055;-74
2022/05/04 01:30:03;;;;;;;12.60;2.88;;;9.20;98.90;;;;;;4917904;29;20040;-76
2022/05/04 01:32:29;;;;;;;12.75;2.58;;;9.20;99.10;;;;;;4900744;29;20032;-74
2022/05/04 01:35:10;;;;;;;15.27;3.00;;;9.20;99.30;;;;;;4902147;29;20037;-76
2022/05/04 01:37:36;;;;;;;14.90;3.38;;;9.20;99.00;;;;;;4902611;29;20076;-75
2022/05/04 01:40:03;;;;;;;10.20;2.10;;;;;;;;;;4918344;29;20043;-75
2022/05/04 01:42:28;;;;;;;9.30;2.53;;;9.20;98.90;;;;;;4917081;29;20044;-76
2022/05/04 01:44:54;;;;;;;9.77;2.78;;;9.10;99.00;;;;;;4917190;29;20112;-74
2022/05/04 01:47:19;;;;;;;15.52;2.60;;;9.10;98.90;;;;;;4915845;29;20090;-75
2022/05/04 01:49:45;;;;;;;13.02;3.22;;;9.20;98.90;;;;;;4918075;29;20068;-76
2022/05/04 01:52:11;;;;;;;14.00;2.90;;;9.20;99.20;;;;;;4918469;29;20032;-75
2022/05/04 01:54:36;;;;;;;12.90;3.30;;;9.00;98.90;;;;;;4917948;29;20049;-76
2022/05/04 01:57:02;;;;;;;10.73;2.60;;;9.20;98.90;;;;;;4915286;29;20048;-74
2022/05/04 01:59:28;;;;;;;9.80;2.40;;;9.40;99.90;;;;;;4918493;29;20048;-75
2022/05/04 02:01:54;;;;;;;11.40;2.35;;;9.20;99.60;;;;;;4918312;29;20051;-76
2022/05/04 02:04:20;;;;;;;11.55;2.97;;;9.20;99.30;;;;;;4902104;29;20044;-75
2022/05/04 02:06:47;;;;;;;12.32;2.85;;;9.20;99.10;;;;;;4918545;29;20044;-76
2022/05/04 02:09:13;;;;;;;11.70;2.70;;;9.20;99.20;;;;;;4902216;29;20048;-75
2022/05/04 02:11:38;;;;;;;12.70;2.75;;;9.20;99.40;;;;;;4902923;29;20028;-75
2022/05/04 02:14:05;;;;;;;11.23;2.72;;;8.70;99.40;;;;;;4918450;29;20028;-75
2022/05/04 02:16:31;;;;;;;13.48;3.17;;;8.90;99.20;;;;;;4900719;29;20056;-74
2022/05/04 02:19:06;;;;;;;13.48;2.83;;;9.20;99.40;;;;;;4901389;29;20058;-75
2022/05/04 02:21:31;;;;;;;18.75;2.97;;;9.10;99.70;;;;;;4922225;29;20108;-75
2022/05/04 02:23:57;;;;;;;16.20;3.08;;;9.10;99.90;;;;;;4921192;29;20036;-75
2022/05/04 02:26:22;;;;;;;15.20;3.40;;;9.00;99.90;;;;;;4920765;29;20040;-75
2022/05/04 02:28:48;;;;;;;12.18;2.30;;;9.00;99.90;;;;;;4902947;29;20044;-75
2022/05/04 02:31:14;;;;;;;10.60;2.88;;;9.00;99.90;;;;;;4915413;29;20065;-76
2022/05/04 02:33:39;;;;;;;11.82;3.92;;;8.90;99.90;;;;;;4919963;29;20033;-75
2022/05/04 02:38:50;;;;;;;9.52;2.78;;;8.90;99.90;;;;;;4918709;29;20045;-75
2022/05/04 02:41:15;;;;;;;14.00;3.28;;;9.10;99.90;;;;;;4919113;29;20051;-74
2022/05/04 02:43:41;;;;;;;17.50;3.10;;;8.90;99.90;;;;;;4919913;29;20117;-74
2022/05/04 02:46:18;;;;;;;11.18;2.80;;;8.90;99.90;;;;;;4903369;29;20056;-73
2022/05/04 02:48:44;;;;;;;13.15;2.47;;;8.90;99.90;;;;;;4903201;29;20052;-75
2022/05/04 02:51:10;;;;;;;11.15;2.33;;;8.90;99.90;;;;;;4904530;29;20059;-73
2022/05/04 02:53:36;;;;;;;11.80;2.83;;;8.90;99.90;;;;;;4920579;29;20064;-75
2022/05/04 02:56:02;;;;;;;11.43;3.05;;;8.90;99.90;;;;;;4920165;29;20071;-76
2022/05/04 02:58:30;;;;;;;10.15;3.13;;;9.00;99.40;;;;;;4919915;29;20045;-77
2022/05/04 03:04:41;;;;;;;10.25;1.92;;;8.90;99.30;;;;;;4916813;29;20085;-76
2022/05/04 03:07:07;;;;;;;11.13;2.00;;;8.90;99.30;;;;;;4901407;29;20056;-74
2022/05/04 03:09:32;;;;;;;12.88;3.58;;;9.10;99.50;;;;;;4918927;29;20048;-75
2022/05/04 03:11:58;;;;;;;12.55;2.67;;;8.90;99.50;;;;;;4918233;29;20072;-76
2022/05/04 03:14:26;;;;;;;7.78;1.98;;;8.90;99.60;;;;;;4920003;29;20056;-77
2022/05/04 03:16:52;;;;;;;12.88;2.17;;;8.90;99.70;;;;;;4919764;29;20072;-76
2022/05/04 03:19:18;;;;;;;9.93;3.03;;;9.00;99.50;;;;;;4919727;29;20055;-75
2022/05/04 03:21:43;;;;;;;17.95;3.08;;;8.90;99.70;;;;;;4917324;29;20044;-77
2022/05/04 03:24:09;;;;;;;8.88;1.98;;;9.00;99.80;;;;;;4918471;29;20068;-77
2022/05/04 03:26:38;;;;;;;9.15;2.35;;;9.00;99.50;;;;;;4919390;29;20068;-76
2022/05/04 03:29:04;;;;;;;8.52;2.60;;;9.10;99.40;;;;;;4920075;29;20335;-76
2022/05/04 03:31:30;;;;;;;9.70;2.13;;;9.00;99.10;;;;;;4918601;29;20101;-76
2022/05/04 03:34:02;;;;;;;12.88;2.97;;;8.90;99.00;;;;;;4903008;29;20454;-75
2022/05/04 03:36:28;;;;;;;13.57;2.53;;;9.00;99.10;;;;;;4902839;29;20033;-75
2022/05/04 03:38:54;;;;;;;13.70;3.03;;;9.00;99.10;;;;;;4919142;29;20043;-76
2022/05/04 03:41:21;;;;;;;10.85;2.40;;;9.00;99.20;;;;;;4919894;29;20043;-76
2022/05/04 03:43:47;;;;;;;12.82;2.50;;;8.90;99.40;;;;;;4902116;29;20055;-75
2022/05/04 03:46:17;;;;;;;9.63;2.28;;;8.90;99.50;;;;;;4918804;29;20049;-75
2022/05/04 03:48:45;;;;;;;11.40;2.53;;;8.90;99.40;;;;;;4917694;29;20059;-76
2022/05/04 03:51:23;;;;;;;10.82;3.10;;;8.90;99.50;;;;;;4917455;29;20068;-75
2022/05/04 03:53:51;;;;;;;9.32;2.80;;;8.90;99.60;;;;;;4885153;29;20053;-75
2022/05/04 03:56:18;;;;;;;10.10;2.17;;;8.80;99.80;;;;;;4918453;29;20120;-74
2022/05/04 03:58:44;;;;;;;7.50;2.13;;;8.90;99.50;;;;;;4902469;29;20045;-75
2022/05/04 04:01:11;;;;;;;13.93;2.35;;;8.80;99.70;;;;;;4917444;29;20444;-75
2022/05/04 04:03:37;;;;;;;13.55;2.30;;;8.90;99.40;;;;;;4918426;29;20108;-74
2022/05/04 04:06:03;;;;;;;11.23;3.03;;;8.90;99.60;;;;;;4918005;29;20045;-73
2022/05/04 04:08:29;;;;;;;8.00;2.50;;;8.80;99.40;;;;;;4917458;29;20080;-77
2022/05/04 04:10:55;;;;;;;11.98;2.58;;;9.00;99.40;;;;;;4897956;29;20108;-76
2022/05/04 04:13:21;;;;;;;16.65;3.58;;;8.90;99.40;;;;;;4915932;29;20037;-76
2022/05/04 04:15:51;;;;;;;13.43;2.58;;;8.90;99.30;;;;;;4918996;29;20052;-74
2022/05/04 04:18:24;;;;;;;7.72;2.50;;;8.90;99.20;;;;;;4919425;29;20076;-75
2022/05/04 04:23:42;;;;;;;10.25;2.38;;;8.80;99.00;;;;;;4919648;29;20044;-76
2022/05/04 04:26:09;;;;;;;14.65;2.83;;;9.10;99.70;;;;;;4919933;29;20052;-75
2022/05/04 04:28:36;;;;;;;11.88;2.15;;;9.00;99.20;;;;;;4902608;29;20052;-75
2022/05/04 04:31:03;;;;;;;8.43;2.15;;;9.00;99.90;;;;;;4902117;29;20057;-74
2022/05/04 04:33:29;;;;;;;8.35;2.63;;;9.30;98.80;;;;;;4918529;29;20050;-75
2022/05/04 04:35:56;;;;;;;9.95;1.90;;;9.00;99.20;;;;;;4917747;29;20060;-75
2022/05/04 04:38:21;;;;;;;10.15;2.30;;;9.00;98.90;;;;;;4919259;29;20096;-76
2022/05/04 04:40:47;;;;;;;10.90;3.08;;;9.10;98.70;;;;;;4919510;29;20048;-77
2022/05/04 04:43:14;;;;;;;13.10;2.22;;;9.20;98.60;;;;;;4918656;29;20059;-75
2022/05/04 04:45:43;;;;;;;6.40;1.63;;;9.00;98.70;;;;;;4920106;29;20092;-76
2022/05/04 04:48:09;;;;;;;9.00;3.03;;;9.40;98.50;;;;;;4900345;29;20073;-77
2022/05/04 04:50:36;;;;;;;12.23;3.00;;;9.10;98.40;;;;;;4916340;29;20096;-76
2022/05/04 04:53:01;;;;;;;9.32;2.25;;;9.20;98.40;;;;;;4918166;29;20052;-75
2022/05/04 04:55:27;;;;;;;12.60;2.92;;;9.10;98.30;;;;;;4918317;29;20049;-75
2022/05/04 04:57:53;;;;;;;9.75;1.98;;;9.10;98.40;;;;;;4917550;29;20040;-75
2022/05/04 05:00:20;;;;;;;12.80;2.30;;;9.20;98.20;;;;;;4919629;29;20040;-75
2022/05/04 05:02:46;;;;;;;9.95;2.60;;;9.10;98.30;;;;;;4919177;29;20044;-75
2022/05/04 05:05:30;;;;;;;10.55;2.63;;;9.20;98.30;;;;;;4919357;29;20044;-74
2022/05/04 05:07:56;;;;;;;9.20;1.75;;;9.10;98.50;;;;;;4903560;29;20028;-76
2022/05/04 05:10:22;;;;;;;9.05;1.80;;;9.10;98.50;;;;;;4919689;29;20056;-76
2022/05/04 05:12:50;;;;;;;13.93;2.47;;;9.20;98.30;;;;;;4903266;29;20055;-75
2022/05/04 05:18:03;;;;;;;15.60;3.20;;;9.10;97.80;;;;;;4917499;29;20053;-75
2022/05/04 05:20:41;;;;;;;8.93;2.10;;;9.10;97.70;;;;;;4918557;29;20456;-77
2022/05/04 05:23:06;;;;;;;11.13;2.90;;;9.20;97.70;;;;;;4917307;29;20044;-75
2022/05/04 05:25:33;;;;;;;10.93;1.90;;;9.20;97.80;;;;;;4919301;29;20051;-75
2022/05/04 05:27:59;;;;;;;10.15;1.85;;;9.30;97.80;;;;;;4919431;29;20036;-75
2022/05/04 05:30:25;;;;;;;7.85;2.00;;;9.30;97.60;;;;;;4918681;29;20036;-75
2022/05/04 05:32:50;;;;;;;10.20;3.05;;;9.40;97.40;;;;;;4915976;29;20111;-76
2022/05/04 05:35:28;;;;;;;10.50;1.90;;;9.60;97.40;;;;;;4918852;29;20047;-77
2022/05/04 05:37:54;;;;;;;8.98;2.30;;;9.50;97.60;;;;;;4918962;29;20079;-75
2022/05/04 05:40:20;;;;;;;9.65;2.13;;;9.50;97.80;;;;;;4919260;29;20045;-76
2022/05/04 05:42:45;;;;;;;7.95;2.08;;;9.60;97.80;;;;;;4919616;29;20044;-74
2022/05/04 05:45:11;;;;;;;8.95;1.98;;;9.60;97.90;;;;;;4919637;29;20032;-75
2022/05/04 05:47:39;;;;;;;11.30;2.42;;;9.60;97.60;;;;;;4903850;29;20123;-76
2022/05/04 05:50:05;;;;;;;10.25;2.25;;;9.70;97.60;;;;;;4919709;29;20048;-78
2022/05/04 05:52:30;;;;;;;9.55;1.55;;;9.70;97.20;;;;;;4914756;29;20037;-75
2022/05/04 05:54:56;;;;;;;10.93;2.00;;;9.60;96.60;;;;;;4915427;29;20044;-75
2022/05/04 05:57:22;;;;;;;8.35;2.42;;;9.60;96.80;;;;;;4918356;29;20304;-76
2022/05/04 05:59:48;;;;;;;8.60;2.00;;;9.70;96.70;;;;;;4918049;29;20044;-75
2022/05/04 06:02:13;;;;;;;8.95;2.42;;;9.60;96.40;;;;;;4919581;29;20100;-75
2022/05/04 06:04:39;;;;;;;9.68;1.70;;;;;;;;;;4902510;29;20057;-75
2022/05/04 06:07:11;;;;;;;12.00;2.40;;;9.80;96.00;;;;;;4903239;29;20053;-73
2022/05/04 06:09:36;;;;;;;11.00;2.05;;;9.80;95.70;;;;;;4918057;29;20048;-75
2022/05/04 06:12:02;;;;;;;12.43;2.08;;;9.80;95.60;;;;;;4919375;29;20036;-75
2022/05/04 06:14:28;;;;;;;7.05;1.67;;;;;;;;;;4917415;29;20088;-76
2022/05/04 06:16:54;;;;;;;13.00;2.03;;;9.80;95.10;;;;;;4917293;29;20037;-75
2022/05/04 06:19:20;;;;;;;7.28;1.50;;;9.80;95.40;;;;;;4917812;29;20052;-77
2022/05/04 06:21:45;;;;;;;9.15;2.08;;;10.10;95.60;;;;;;4902125;29;20053;-74
2022/05/04 06:24:11;;;;;;;10.20;1.70;;;10.20;95.40;;;;;;4919084;29;20044;-78
2022/05/04 06:26:36;;;;;;;10.43;2.70;;;10.10;95.10;;;;;;4918777;29;20047;-74
2022/05/04 06:29:02;;;;;;;11.00;2.17;;;10.60;96.10;;;;;;4918594;29;20056;-75
2022/05/04 06:34:12;;;;;;;;;;;10.20;94.60;;;;;;4902523;29;20033;-76
2022/05/04 06:37:06;;;;;;;11.95;2.45;;;10.10;95.30;;;;;;4919151;29;19936;-75
2022/05/04 06:39:31;;;;;;;11.20;2.53;;;10.40;95.40;;;;;;4918583;29;20041;-76
2022/05/04 06:41:57;;;;;;;12.52;2.28;;;10.60;94.80;;;;;;4918843;29;20081;-75
2022/05/04 06:44:22;;;;;;;10.20;2.40;;;10.90;94.80;;;;;;4919192;29;20084;-74
2022/05/04 06:46:49;;;;;;;12.57;2.90;;;10.90;94.90;;;;;;4919099;29;20049;-73
2022/05/04 06:49:15;;;;;;;13.07;2.30;;;11.00;94.60;;;;;;4919757;29;20088;-74
2022/05/04 06:51:45;;;;;;;7.53;1.70;;;11.00;94.40;;;;;;4919308;29;20048;-77
2022/05/04 06:54:10;;;;;;;13.80;2.53;;;11.20;94.00;;;;;;4918048;29;20104;-76
2022/05/04 06:56:36;;;;;;;10.85;2.75;;;11.20;93.70;;;;;;4917941;29;20044;-75
2022/05/04 06:59:02;;;;;;;12.02;2.65;;;11.30;93.90;;;;;;4916387;29;20024;-77
2022/05/04 07:01:28;;;;;;;10.45;2.10;;;11.40;93.50;;;;;;4902821;29;20064;-76
2022/05/04 07:03:54;;;;;;;8.02;2.10;;;11.40;93.10;;;;;;4919050;29;20033;-75
2022/05/04 07:06:19;;;;;;;11.32;2.10;;;11.60;93.20;;;;;;4921870;29;20300;-76
2022/05/04 07:08:45;;;;;;;8.95;2.03;;;11.60;92.90;;;;;;4922360;29;20071;-74
2022/05/04 07:11:10;;;;;;;8.48;2.15;;;11.60;92.60;;;;;;4923258;29;20024;-76
2022/05/04 07:13:36;;;;;;;12.18;2.08;;;11.80;92.20;;;;;;4922885;29;20052;-76
2022/05/04 07:16:02;;;;;;;10.68;2.17;;;12.00;92.60;;;;;;4923261;29;20029;-73
2022/05/04 07:18:27;;;;;;;14.32;2.55;;;12.10;92.60;;;;;;4886078;29;1083920;-75
2022/05/04 07:20:54;;;;;;;14.73;2.72;;;11.80;92.10;;;;;;4923037;29;20049;-75
2022/05/04 07:27:25;;;;;;;9.05;1.92;;;11.90;91.10;;;;;;4923364;29;20101;-76
2022/05/04 07:29:51;;;;;;;9.68;2.22;;;11.80;90.80;;;;;;4922649;29;20044;-74
2022/05/04 07:32:17;;;;;;;7.75;1.75;;;12.00;91.10;;;;;;4923662;29;20036;-74
2022/05/04 07:34:51;;;;;;;8.07;1.67;;;12.10;90.70;;;;;;5184654;23;20038;-74
2022/05/04 07:42:44;;;;;;;6.30;2.17;;;12.30;90.40;;;;;;5074964;23;20049;-76
2022/05/04 07:45:15;;;;;;;9.40;2.05;;;12.10;90.20;;;;;;4892399;29;20035;-76
2022/05/04 07:47:59;;;;;;;11.38;2.15;;;12.60;90.10;;;;;;4923368;29;20067;-75
2022/05/04 07:50:30;;;;;;;13.60;2.40;;;12.50;88.70;;;;;;4908331;29;20108;-74
2022/05/04 07:56:56;;;;;;;7.18;1.80;;;12.30;89.10;;;;;;4923487;29;20047;-76
2022/05/04 07:59:25;;;;;;;12.05;2.33;;;12.70;87.60;;;;;;4964085;23;20064;-75
2022/05/04 08:04:44;;;;;;;7.13;1.92;;;12.80;88.20;;;;;;4926341;29;20040;-75
2022/05/04 08:13:57;;;;;;;10.90;2.35;;;12.60;85.70;;;;;;5020721;23;20044;-75
2022/05/04 08:16:32;;;;;;;8.82;2.25;;;13.50;86.80;;;;;;4876857;29;20068;-75
2022/05/04 08:19:10;;;;;;;9.77;2.38;;;12.60;85.40;;;;;;4907437;29;20087;-76
2022/05/04 08:28:19;;;;;;;11.57;2.30;;;13.60;82.90;;;;;;5683057;23;20052;-74
2022/05/04 08:31:10;;;;;;;6.78;2.30;;;13.80;85.00;;;;;;4892985;29;20104;-75
2022/05/04 08:36:56;;;;;;;9.50;2.28;;;13.30;83.30;;;;;;4869471;27;20080;-75
2022/05/04 08:39:27;;;;;;;17.33;2.97;;;13.40;84.60;;;;;;4889405;29;20044;-75
2022/05/04 08:42:00;;;;;;;9.13;2.25;;;13.40;82.60;;;;;;4873535;29;20056;-73
2022/05/04 08:44:49;;;;;;;9.45;2.13;;;13.30;81.30;;;;;;4884787;29;20052;-75
2022/05/04 08:47:35;;;;;;;12.70;2.58;;;13.10;82.70;;;;;;4885061;29;20049;-73
2022/05/04 08:50:18;;;;;;;8.02;1.98;;;13.20;82.90;;;;;;4853341;29;20125;-73
2022/05/04 09:01:46;;;;;;;10.18;2.00;;;13.60;82.60;;;;;;5027985;23;20056;-75
2022/05/04 09:04:26;;;;;;;9.93;1.95;;;12.70;82.40;;;;;;4925536;23;20045;-74
2022/05/04 09:09:46;;;;;;;12.68;2.47;;;13.60;83.10;;;;;;4966436;23;20065;-75
2022/05/04 09:12:15;;;;;;;5.72;2.00;;;13.70;82.20;;;;;;4853534;29;20053;-75
2022/05/04 09:14:44;;;;;;;9.18;2.05;;;13.80;81.90;;;;;;4868292;29;20080;-74
2022/05/04 09:17:16;;;;;;;10.90;2.95;;;14.00;81.00;;;;;;4838146;29;20147;-75
2022/05/04 09:29:09;;;;;;;9.27;2.85;;;14.10;80.70;;;;;;5451651;23;20079;-74
2022/05/04 09:31:46;;;;;;;6.43;2.25;;;13.70;77.20;;;;;;4906987;29;20080;-74
2022/05/04 09:34:33;;;;;;;17.80;3.15;;;14.50;79.10;;;;;;4906588;29;20044;-74
2022/05/04 09:48:07;;;;;;;8.75;1.98;;;14.50;80.10;;;;;;5141515;23;20037;-75
2022/05/04 09:58:52;;;;;;;9.18;2.40;;;14.70;75.80;;;;;;4935293;23;20049;-76
2022/05/04 10:01:29;;;;;;;7.13;1.60;;;14.80;75.50;;;;;;4876277;29;20498;-75
2022/05/04 10:04:16;;;;;;;11.15;2.28;;;15.80;76.10;;;;;;4919618;29;20514;-76
2022/05/04 10:06:46;;;;;;;9.75;1.88;;;15.10;72.40;;;;;;4905423;29;20075;-74
2022/05/04 10:20:12;;;;;;;9.30;2.22;;;16.30;71.00;;;;;;5940630;23;20069;-74
2022/05/04 10:33:43;;;;;;;6.97;1.60;;;17.50;72.80;;;;;;4875226;29;20038;-72
2022/05/04 10:36:18;;;;;;;6.15;2.17;;;;;;;;;;4897797;29;20082;-74
2022/05/04 10:45:06;;;;;;;10.27;2.35;;;19.90;65.20;;;;;;5648520;23;20049;-75
2022/05/04 17:16:42;;;;;;;7.97;2.08;;;18.90;45.00;;;;;;4923064;29;20051;-77
2022/05/04 17:20:04;;;;;;;12.85;2.38;;;17.60;48.30;;;;;;4856303;29;20068;-79
2022/05/04 17:23:12;;;;;;;9.60;2.30;;;17.20;48.80;;;;;;4851740;29;20058;-78
2022/05/04 17:26:04;;;;;;;10.48;3.50;;;16.90;50.30;;;;;;4865278;29;20058;-77
2022/05/04 17:28:37;;;;;;;8.25;2.47;;;16.50;51.30;;;;;;4865321;29;20054;-77
2022/05/04 17:31:15;;;;;;;12.02;2.67;;;16.30;51.80;;;;;;4850651;29;20117;-78
2022/05/04 17:36:45;;;;;;;12.10;2.90;;;15.80;52.60;;;;;;4850429;29;20061;-75
2022/05/04 17:39:14;;;;;;;9.45;2.28;;;15.70;53.20;;;;;;4834735;29;20030;-74
2022/05/04 17:41:53;;;;;;;8.32;2.13;;;15.30;53.10;;;;;;4837652;29;20050;-79
2022/05/04 17:47:17;;;;;;;10.23;2.60;;;15.00;54.90;;;;;;5286519;23;20063;-78
2022/05/04 17:49:54;;;;;;;7.72;2.17;;;14.30;55.10;;;;;;4865651;29;20064;-78
2022/05/04 17:52:25;;;;;;;8.57;2.95;;;14.80;55.70;;;;;;4867078;29;20120;-76
2022/05/04 17:55:05;;;;;;;8.52;2.92;;;14.50;56.10;;;;;;4866137;29;20045;-78
2022/05/04 17:57:39;;;;;;;9.13;2.50;;;14.30;56.00;;;;;;4867163;29;20039;-78
2022/05/04 18:00:12;;;;;;;12.40;3.05;;;13.60;57.00;;;;;;4850245;29;20086;-80
2022/05/04 18:05:52;;;;;;;12.25;3.10;;;14.00;57.40;;;;;;4827951;29;20063;-78
2022/05/04 18:08:21;;;;;;;9.38;3.10;;;13.80;58.60;;;;;;4798626;29;20055;-76
2022/05/04 18:10:51;;;;;;;11.93;2.45;;;;;;;;;;4812955;29;20055;-76
2022/05/04 18:16:35;;;;;;;11.80;3.75;;;13.50;60.60;;;;;;4860549;27;20060;-77
2022/05/04 18:19:08;;;;;;;8.15;3.33;;;13.70;61.10;;;;;;4890806;29;20076;-80
2022/05/04 18:21:50;;;;;;;9.90;2.80;;;13.00;62.00;;;;;;4906355;29;20025;-80
2022/05/04 18:24:41;;;;;;;12.52;4.13;;;;;;;;;;4918779;29;20072;-79
2022/05/04 18:27:23;;;;;;;11.55;3.10;;;12.80;62.20;;;;;;4920354;29;20035;-81
2022/05/04 18:29:57;;;;;;;10.68;3.00;;;12.70;63.50;;;;;;4860402;29;20104;-77
2022/05/04 18:32:27;;;;;;;11.40;2.70;;;12.70;63.60;;;;;;4856990;29;20116;-77
2022/05/04 18:34:54;;;;;;;11.13;2.47;;;12.20;63.50;;;;;;4887435;29;20040;-79
2022/05/04 18:37:36;;;;;;;9.95;3.05;;;12.60;64.80;;;;;;4862161;29;20057;-79
2022/05/04 18:40:03;;;;;;;10.00;3.13;;;13.20;67.80;;;;;;4846789;29;20045;-79
2022/05/04 18:46:22;;;;;;;10.23;3.10;;;13.00;69.50;;;;;;4863068;29;20053;-80
2022/05/04 18:48:52;;;;;;;10.05;2.70;;;12.10;69.00;;;;;;4817508;29;20062;-79
2022/05/04 18:51:20;;;;;;;11.90;2.72;;;11.60;70.20;;;;;;4832438;29;20090;-79
2022/05/04 18:53:49;;;;;;;11.07;3.25;;;11.90;72.10;;;;;;4832829;29;20038;-78
2022/05/04 18:56:18;;;;;;;13.95;3.10;;;11.70;72.90;;;;;;4833092;29;20085;-80
2022/05/04 19:06:18;;;;;;;12.32;3.17;;;11.70;78.40;;;;;;4865366;29;20029;-77
2022/05/04 19:08:46;;;;;;;9.75;3.40;;;10.80;79.40;;;;;;4833277;29;20113;-77
2022/05/04 19:11:17;;;;;;;12.57;3.50;;;11.40;80.50;;;;;;4836581;29;20028;-76
2022/05/04 19:14:33;;;;;;;11.30;3.55;;;11.50;81.30;;;;;;4839978;29;20057;-77
2022/05/04 19:17:03;;;;;;;11.20;3.25;;;11.20;85.60;;;;;;4904341;29;20120;-78
2022/05/04 19:19:34;;;;;;;14.40;3.95;;;11.60;84.70;;;;;;4906028;29;20036;-77
2022/05/04 19:22:09;;;;;;;11.23;4.38;;;10.50;85.80;;;;;;4922681;29;20082;-78
2022/05/04 19:24:39;;;;;;;10.02;3.78;;;11.30;88.60;;;;;;4920823;29;20045;-77
2022/05/04 19:27:08;;;;;;;13.10;3.95;;;13.80;91.00;;;;;;4902514;29;20111;-79
2022/05/04 19:29:40;;;;;;;11.55;3.85;;;10.40;90.40;;;;;;4888645;29;20076;-78
2022/05/04 19:32:06;;;;;;;9.40;3.72;;;10.10;90.50;;;;;;4906035;29;20048;-77
2022/05/04 19:34:34;;;;;;;10.02;3.45;;;10.70;91.00;;;;;;4890079;29;20037;-79
2022/05/04 19:37:00;;;;;;;11.05;4.05;;;;;;;;;;4889876;29;20051;-78
2022/05/04 19:39:27;;;;;;;14.00;4.57;;;10.60;91.30;;;;;;4903357;29;20403;-80
2022/05/04 19:41:54;;;;;;;12.85;4.10;;;10.60;92.30;;;;;;4904738;29;20028;-78
2022/05/04 19:44:48;;;;;;;11.63;3.47;;;10.50;93.00;;;;;;4889161;29;20024;-78
2022/05/04 19:47:20;;;;;;;15.95;3.80;;;10.40;94.20;;;;;;4889732;29;20048;-78
2022/05/04 19:49:49;;;;;;;10.45;3.92;;;10.30;94.10;;;;;;4905097;29;20033;-78
2022/05/04 19:52:15;;;;;;;13.10;4.10;;;11.00;95.00;;;;;;4920911;29;20049;-78
2022/05/04 19:54:42;;;;;;;13.85;4.70;;;10.20;95.50;;;;;;4904721;29;20048;-76
2022/05/04 19:57:08;;;;;;;16.23;4.40;;;10.40;97.10;;;;;;4888292;29;20048;-76
2022/05/04 20:03:00;;;;;;;16.98;4.25;;;10.20;97.10;;;;;;4918298;29;20056;-77
2022/05/04 20:05:26;;;;;;;12.63;5.10;;;10.10;97.00;;;;;;4917758;29;20036;-77
2022/05/04 20:07:52;;;;;;;16.17;4.55;;;10.10;96.10;;;;;;4901178;29;20059;-76
2022/05/04 20:10:19;;;;;;;9.30;4.38;;;10.10;95.70;;;;;;4918614;29;20036;-80
2022/05/04 20:12:45;;;;;;;16.17;4.03;;;9.60;96.20;;;;;;4887196;29;20059;-79
2022/05/04 20:15:25;;;;;;;17.52;4.85;;;10.00;96.20;;;;;;4902630;29;20100;-79
2022/05/04 20:17:54;;;;;;;11.82;3.40;;;10.70;96.70;;;;;;4903957;29;20068;-76
2022/05/04 20:20:21;;;;;;;13.57;3.50;;;9.90;97.00;;;;;;4904460;29;20036;-78
2022/05/04 20:22:47;;;;;;;12.10;3.58;;;9.80;97.10;;;;;;4920554;29;20044;-77
2022/05/04 20:25:14;;;;;;;9.43;3.70;;;9.70;97.30;;;;;;4904141;29;20084;-78
2022/05/04 20:27:44;;;;;;;9.40;3.17;;;9.70;97.70;;;;;;4904346;29;20044;-79
2022/05/04 20:30:48;;;;;;;9.27;3.10;;;9.60;97.60;;;;;;4902782;29;20047;-79
2022/05/04 20:33:14;;;;;;;11.20;3.55;;;9.50;98.30;;;;;;4888242;29;20048;-79
2022/05/04 20:35:40;;;;;;;16.33;4.68;;;9.50;98.60;;;;;;4888350;29;20128;-78
2022/05/04 20:40:54;;;;;;;13.23;4.82;;;9.70;98.50;;;;;;4903559;29;20056;-76
2022/05/04 20:43:20;;;;;;;9.63;4.38;;;9.60;98.80;;;;;;4919786;29;20052;-76
2022/05/04 20:45:55;;;;;;;11.70;4.53;;;9.40;99.30;;;;;;4919410;29;20072;-78
2022/05/04 20:48:25;;;;;;;13.30;4.55;;;9.00;99.40;;;;;;4919418;29;20049;-78
2022/05/04 20:53:36;;;;;;;13.73;4.63;;;10.10;99.10;;;;;;4902132;29;20080;-76
2022/05/04 20:56:05;;;;;;;13.02;4.68;;;9.30;99.20;;;;;;4887520;29;20113;-78
2022/05/04 20:58:33;;;;;;;11.15;4.75;;;9.30;99.40;;;;;;4902734;29;20040;-78
2022/05/04 21:01:07;;;;;;;10.63;3.67;;;10.10;99.90;;;;;;4885585;29;20064;-78
2022/05/04 21:03:33;;;;;;;;;;;9.30;99.50;;;;;;4888133;29;20049;-77
2022/05/04 21:05:59;;;;;;;10.07;4.38;;;9.20;99.90;;;;;;4902239;29;19903;-79
2022/05/04 21:08:25;;;;;;;13.23;5.00;;;10.40;99.90;;;;;;4917380;29;20131;-80
2022/05/04 21:10:51;;;;;;;17.35;6.30;;;10.60;99.90;;;;;;4883708;29;20041;-80
2022/05/04 21:13:19;;;;;;;17.77;5.15;;;9.20;99.90;;;;;;4886597;29;20072;-77
2022/05/04 21:15:48;;;;;;;16.70;4.15;;;9.20;99.90;;;;;;4886431;29;20060;-76
2022/05/04 21:18:17;;;;;;;11.68;4.28;;;9.20;99.90;;;;;;4901842;29;20049;-78
2022/05/04 21:20:45;;;;;;;18.08;5.15;;;9.10;99.90;;;;;;4901997;29;20465;-78
2022/05/04 21:23:11;;;;;;;16.70;4.47;;;9.20;99.90;;;;;;4886143;29;20064;-77
2022/05/04 21:25:38;;;;;;;12.70;4.82;;;11.50;99.90;;;;;;4885350;29;20108;-78
2022/05/04 21:28:04;;;;;;;10.57;4.35;;;8.90;99.90;;;;;;4883848;29;20036;-76
2022/05/04 21:30:46;;;;;;;11.20;4.80;;;8.70;99.90;;;;;;4897548;29;20131;-76
2022/05/04 21:33:13;;;;;;;17.00;5.07;;;8.70;99.90;;;;;;4885962;29;20060;-75
2022/05/04 21:35:39;;;;;;;9.23;4.90;;;;;;;;;;4917679;29;20108;-75
2022/05/04 21:38:06;;;;;;;14.15;5.50;;;8.60;99.90;;;;;;4901317;29;20040;-78
2022/05/04 21:40:32;;;;;;;12.77;4.85;;;8.50;99.90;;;;;;4915690;29;20056;-79
2022/05/04 21:42:59;;;;;;;13.32;5.18;;;8.50;99.90;;;;;;4899724;29;20056;-79
2022/05/04 21:45:25;;;;;;;15.40;5.28;;;8.60;99.90;;;;;;4883538;29;20080;-77
2022/05/04 21:47:52;;;;;;;9.95;4.10;;;8.40;99.90;;;;;;4900070;29;20466;-79
2022/05/04 21:50:18;;;;;;;13.90;5.63;;;8.40;99.90;;;;;;4917499;29;20332;-74
2022/05/04 21:52:45;;;;;;;10.55;5.03;;;8.40;99.90;;;;;;4885486;29;20048;-76
2022/05/04 21:55:14;;;;;;;11.05;4.72;;;8.40;99.90;;;;;;4901353;29;20088;-76
2022/05/04 21:57:40;;;;;;;15.10;5.38;;;8.90;99.90;;;;;;4900892;29;20056;-74
2022/05/04 22:00:45;;;;;;;13.18;6.30;;;8.90;99.90;;;;;;4884958;29;20041;-77
2022/05/04 22:03:13;;;;;;;14.93;5.93;;;8.20;99.90;;;;;;4899737;29;20051;-76